sensor_id;sensor_type;location;lat;lon;timestamp;temperature;humidity
17370;DHT22;8802;52.402;4.920;2022-10-31T00:01:47;17.30;94.40
17370;DHT22;8802;52.402;4.920;2022-10-31T00:04:14;17.30;94.10
17370;DHT22;8802;52.402;4.920;2022-10-31T00:06:41;17.20;94.00
17370;DHT22;8802;52.402;4.920;2022-10-31T00:09:09;17.20;94.00
17370;DHT22;8802;52.402;4.920;2022-10-31T00:11:36;17.20;94.10
17370;DHT22;8802;52.402;4.920;2022-10-31T00:14:03;17.20;94.10
17370;DHT22;8802;52.402;4.920;2022-10-31T00:16:30;17.20;94.10
17370;DHT22;8802;52.402;4.920;2022-10-31T00:19:00;17.20;94.10
17370;DHT22;8802;52.402;4.920;2022-10-31T00:21:28;17.10;94.20
17370;DHT22;8802;52.402;4.920;2022-10-31T00:23:55;17.10;94.20
17370;DHT22;8802;52.402;4.920;2022-10-31T00:26:21;17.10;94.20
17370;DHT22;8802;52.402;4.920;2022-10-31T00:28:48;17.10;94.20
17370;DHT22;8802;52.402;4.920;2022-10-31T00:31:17;17.10;94.20
17370;DHT22;8802;52.402;4.920;2022-10-31T00:33:44;17.10;94.30
17370;DHT22;8802;52.402;4.920;2022-10-31T00:36:13;17.10;94.20
17370;DHT22;8802;52.402;4.920;2022-10-31T00:38:40;17.10;94.20
17370;DHT22;8802;52.402;4.920;2022-10-31T00:41:08;17.10;94.20
17370;DHT22;8802;52.402;4.920;2022-10-31T00:43:34;17.00;94.20
17370;DHT22;8802;52.402;4.920;2022-10-31T00:46:01;17.00;94.20
17370;DHT22;8802;52.402;4.920;2022-10-31T00:48:28;17.00;94.20
17370;DHT22;8802;52.402;4.920;2022-10-31T00:50:56;17.00;94.40
17370;DHT22;8802;52.402;4.920;2022-10-31T00:53:24;17.00;94.40
17370;DHT22;8802;52.402;4.920;2022-10-31T00:55:51;17.00;94.40
17370;DHT22;8802;52.402;4.920;2022-10-31T00:58:18;17.00;94.30
17370;DHT22;8802;52.402;4.920;2022-10-31T01:00:47;16.80;94.60
17370;DHT22;8802;52.402;4.920;2022-10-31T01:03:20;17.00;94.50
17370;DHT22;8802;52.402;4.920;2022-10-31T01:05:55;16.90;94.30
17370;DHT22;8802;52.402;4.920;2022-10-31T01:08:23;16.90;94.40
17370;DHT22;8802;52.402;4.920;2022-10-31T01:11:02;16.90;94.40
17370;DHT22;8802;52.402;4.920;2022-10-31T01:13:29;16.90;94.40
17370;DHT22;8802;52.402;4.920;2022-10-31T01:15:57;16.90;94.30
17370;DHT22;8802;52.402;4.920;2022-10-31T01:18:24;16.90;94.40
17370;DHT22;8802;52.402;4.920;2022-10-31T01:20:58;16.90;94.40
17370;DHT22;8802;52.402;4.920;2022-10-31T01:23:28;16.90;94.30
17370;DHT22;8802;52.402;4.920;2022-10-31T01:26:03;16.80;94.20
17370;DHT22;8802;52.402;4.920;2022-10-31T01:28:30;16.80;94.30
17370;DHT22;8802;52.402;4.920;2022-10-31T01:31:00;16.80;94.30
17370;DHT22;8802;52.402;4.920;2022-10-31T01:33:28;16.80;94.90
17370;DHT22;8802;52.402;4.920;2022-10-31T01:35:55;16.80;94.40
17370;DHT22;8802;52.402;4.920;2022-10-31T01:38:21;16.80;94.60
17370;DHT22;8802;52.402;4.920;2022-10-31T01:40:50;16.80;94.60
17370;DHT22;8802;52.402;4.920;2022-10-31T01:43:18;16.70;94.50
17370;DHT22;8802;52.402;4.920;2022-10-31T01:45:48;16.70;94.60
17370;DHT22;8802;52.402;4.920;2022-10-31T01:48:18;16.70;94.60
17370;DHT22;8802;52.402;4.920;2022-10-31T01:50:47;16.70;94.60
17370;DHT22;8802;52.402;4.920;2022-10-31T01:53:15;16.70;94.70
17370;DHT22;8802;52.402;4.920;2022-10-31T01:55:44;16.70;94.70
17370;DHT22;8802;52.402;4.920;2022-10-31T01:58:16;16.70;94.70
17370;DHT22;8802;52.402;4.920;2022-10-31T02:00:48;16.70;94.70
17370;DHT22;8802;52.402;4.920;2022-10-31T02:03:16;16.70;94.90
17370;DHT22;8802;52.402;4.920;2022-10-31T02:05:43;16.70;94.90
17370;DHT22;8802;52.402;4.920;2022-10-31T02:08:14;16.70;94.90
17370;DHT22;8802;52.402;4.920;2022-10-31T02:10:43;16.70;94.90
17370;DHT22;8802;52.402;4.920;2022-10-31T02:13:10;16.70;94.90
17370;DHT22;8802;52.402;4.920;2022-10-31T02:15:40;16.70;94.90
17370;DHT22;8802;52.402;4.920;2022-10-31T02:18:09;16.70;95.20
17370;DHT22;8802;52.402;4.920;2022-10-31T02:20:42;16.60;94.80
17370;DHT22;8802;52.402;4.920;2022-10-31T02:23:42;16.60;94.90
17370;DHT22;8802;52.402;4.920;2022-10-31T02:29:31;16.60;94.90
17370;DHT22;8802;52.402;4.920;2022-10-31T02:32:12;16.60;94.90
17370;DHT22;8802;52.402;4.920;2022-10-31T02:34:48;16.60;94.90
17370;DHT22;8802;52.402;4.920;2022-10-31T02:37:25;16.60;94.90
17370;DHT22;8802;52.402;4.920;2022-10-31T02:39:58;16.60;94.90
17370;DHT22;8802;52.402;4.920;2022-10-31T02:42:31;16.60;94.90
17370;DHT22;8802;52.402;4.920;2022-10-31T02:45:05;16.60;94.90
17370;DHT22;8802;52.402;4.920;2022-10-31T02:47:37;16.50;95.00
17370;DHT22;8802;52.402;4.920;2022-10-31T02:50:07;16.50;95.00
17370;DHT22;8802;52.402;4.920;2022-10-31T02:52:35;16.50;95.00
17370;DHT22;8802;52.402;4.920;2022-10-31T02:55:11;16.50;95.30
17370;DHT22;8802;52.402;4.920;2022-10-31T02:57:40;16.50;95.10
17370;DHT22;8802;52.402;4.920;2022-10-31T03:00:09;16.40;95.00
17370;DHT22;8802;52.402;4.920;2022-10-31T03:03:00;16.50;95.10
17370;DHT22;8802;52.402;4.920;2022-10-31T03:05:36;16.40;94.90
17370;DHT22;8802;52.402;4.920;2022-10-31T03:08:12;16.40;94.90
17370;DHT22;8802;52.402;4.920;2022-10-31T03:10:45;16.40;94.90
17370;DHT22;8802;52.402;4.920;2022-10-31T03:13:20;16.40;94.90
17370;DHT22;8802;52.402;4.920;2022-10-31T03:15:51;16.40;94.90
17370;DHT22;8802;52.402;4.920;2022-10-31T03:18:24;16.30;94.90
17370;DHT22;8802;52.402;4.920;2022-10-31T03:20:56;16.40;94.90
17370;DHT22;8802;52.402;4.920;2022-10-31T03:23:24;16.30;94.90
17370;DHT22;8802;52.402;4.920;2022-10-31T03:25:53;16.20;94.80
17370;DHT22;8802;52.402;4.920;2022-10-31T03:28:26;16.30;94.80
17370;DHT22;8802;52.402;4.920;2022-10-31T03:30:54;16.30;95.00
17370;DHT22;8802;52.402;4.920;2022-10-31T03:33:27;16.20;95.00
17370;DHT22;8802;52.402;4.920;2022-10-31T03:35:55;16.20;95.50
17370;DHT22;8802;52.402;4.920;2022-10-31T03:38:23;16.20;94.90
17370;DHT22;8802;52.402;4.920;2022-10-31T03:40:51;16.20;95.00
17370;DHT22;8802;52.402;4.920;2022-10-31T03:43:33;16.10;95.10
17370;DHT22;8802;52.402;4.920;2022-10-31T03:46:03;16.10;95.10
17370;DHT22;8802;52.402;4.920;2022-10-31T03:48:32;16.10;95.10
17370;DHT22;8802;52.402;4.920;2022-10-31T03:51:05;16.10;95.50
17370;DHT22;8802;52.402;4.920;2022-10-31T03:53:37;16.10;95.10
17370;DHT22;8802;52.402;4.920;2022-10-31T03:56:10;16.10;95.20
17370;DHT22;8802;52.402;4.920;2022-10-31T03:58:44;16.10;95.10
17370;DHT22;8802;52.402;4.920;2022-10-31T04:01:15;16.00;95.20
17370;DHT22;8802;52.402;4.920;2022-10-31T04:03:45;16.00;95.30
17370;DHT22;8802;52.402;4.920;2022-10-31T04:06:14;16.00;95.40
17370;DHT22;8802;52.402;4.920;2022-10-31T04:08:45;16.00;95.30
17370;DHT22;8802;52.402;4.920;2022-10-31T04:11:15;16.00;95.30
17370;DHT22;8802;52.402;4.920;2022-10-31T04:13:45;16.00;95.30
17370;DHT22;8802;52.402;4.920;2022-10-31T04:16:13;15.90;95.50
17370;DHT22;8802;52.402;4.920;2022-10-31T04:18:41;15.90;95.40
17370;DHT22;8802;52.402;4.920;2022-10-31T04:21:09;15.90;95.80
17370;DHT22;8802;52.402;4.920;2022-10-31T04:23:36;15.90;95.50
17370;DHT22;8802;52.402;4.920;2022-10-31T04:26:03;15.90;95.50
17370;DHT22;8802;52.402;4.920;2022-10-31T04:28:30;15.80;95.40
17370;DHT22;8802;52.402;4.920;2022-10-31T04:30:59;15.90;95.60
17370;DHT22;8802;52.402;4.920;2022-10-31T04:33:26;15.80;96.00
17370;DHT22;8802;52.402;4.920;2022-10-31T04:35:52;15.80;95.70
17370;DHT22;8802;52.402;4.920;2022-10-31T04:38:21;15.80;95.70
17370;DHT22;8802;52.402;4.920;2022-10-31T04:40:47;15.80;95.80
17370;DHT22;8802;52.402;4.920;2022-10-31T04:43:14;15.80;95.70
17370;DHT22;8802;52.402;4.920;2022-10-31T04:45:41;15.80;95.90
17370;DHT22;8802;52.402;4.920;2022-10-31T04:48:08;15.80;95.80
17370;DHT22;8802;52.402;4.920;2022-10-31T04:50:35;15.80;95.80
17370;DHT22;8802;52.402;4.920;2022-10-31T04:53:01;15.80;95.80
17370;DHT22;8802;52.402;4.920;2022-10-31T04:55:29;15.80;95.80
17370;DHT22;8802;52.402;4.920;2022-10-31T04:57:56;15.80;95.70
17370;DHT22;8802;52.402;4.920;2022-10-31T05:00:23;15.80;95.70
17370;DHT22;8802;52.402;4.920;2022-10-31T05:02:51;15.80;95.80
17370;DHT22;8802;52.402;4.920;2022-10-31T05:05:20;15.80;95.80
17370;DHT22;8802;52.402;4.920;2022-10-31T05:07:47;15.70;95.80
17370;DHT22;8802;52.402;4.920;2022-10-31T05:10:16;15.70;95.70
17370;DHT22;8802;52.402;4.920;2022-10-31T05:12:48;15.80;95.70
17370;DHT22;8802;52.402;4.920;2022-10-31T05:15:16;15.80;95.70
17370;DHT22;8802;52.402;4.920;2022-10-31T05:17:43;15.70;95.70
17370;DHT22;8802;52.402;4.920;2022-10-31T05:20:11;15.70;95.70
17370;DHT22;8802;52.402;4.920;2022-10-31T05:22:41;15.70;95.80
17370;DHT22;8802;52.402;4.920;2022-10-31T05:25:09;15.70;95.80
17370;DHT22;8802;52.402;4.920;2022-10-31T05:27:38;15.60;95.80
17370;DHT22;8802;52.402;4.920;2022-10-31T05:30:08;15.70;95.90
17370;DHT22;8802;52.402;4.920;2022-10-31T05:32:39;15.70;96.00
17370;DHT22;8802;52.402;4.920;2022-10-31T05:35:06;15.60;96.00
17370;DHT22;8802;52.402;4.920;2022-10-31T05:37:34;15.60;96.10
17370;DHT22;8802;52.402;4.920;2022-10-31T05:40:02;15.60;96.10
17370;DHT22;8802;52.402;4.920;2022-10-31T05:42:29;15.70;96.10
17370;DHT22;8802;52.402;4.920;2022-10-31T05:44:56;15.60;96.10
17370;DHT22;8802;52.402;4.920;2022-10-31T05:47:24;15.60;96.10
17370;DHT22;8802;52.402;4.920;2022-10-31T05:49:51;15.70;96.00
17370;DHT22;8802;52.402;4.920;2022-10-31T05:52:18;15.70;96.10
17370;DHT22;8802;52.402;4.920;2022-10-31T05:54:45;15.60;96.00
17370;DHT22;8802;52.402;4.920;2022-10-31T05:57:11;15.60;96.00
17370;DHT22;8802;52.402;4.920;2022-10-31T05:59:38;15.60;96.00
17370;DHT22;8802;52.402;4.920;2022-10-31T06:02:05;15.60;96.00
17370;DHT22;8802;52.402;4.920;2022-10-31T06:04:33;15.60;96.10
17370;DHT22;8802;52.402;4.920;2022-10-31T06:07:00;15.60;96.00
17370;DHT22;8802;52.402;4.920;2022-10-31T06:09:27;15.60;96.00
17370;DHT22;8802;52.402;4.920;2022-10-31T06:11:54;15.60;96.10
17370;DHT22;8802;52.402;4.920;2022-10-31T06:14:21;15.50;96.10
17370;DHT22;8802;52.402;4.920;2022-10-31T06:16:47;15.50;96.00
17370;DHT22;8802;52.402;4.920;2022-10-31T06:19:14;15.50;96.10
17370;DHT22;8802;52.402;4.920;2022-10-31T06:21:42;15.40;96.10
17370;DHT22;8802;52.402;4.920;2022-10-31T06:24:09;15.50;96.30
17370;DHT22;8802;52.402;4.920;2022-10-31T06:26:36;15.50;96.20
17370;DHT22;8802;52.402;4.920;2022-10-31T06:29:03;15.50;96.10
17370;DHT22;8802;52.402;4.920;2022-10-31T06:31:30;15.50;96.20
17370;DHT22;8802;52.402;4.920;2022-10-31T06:33:56;15.50;96.20
17370;DHT22;8802;52.402;4.920;2022-10-31T06:36:23;15.50;96.30
17370;DHT22;8802;52.402;4.920;2022-10-31T06:38:52;15.50;96.20
17370;DHT22;8802;52.402;4.920;2022-10-31T06:41:18;15.50;96.30
17370;DHT22;8802;52.402;4.920;2022-10-31T06:43:46;15.50;96.20
17370;DHT22;8802;52.402;4.920;2022-10-31T06:46:13;15.50;96.20
17370;DHT22;8802;52.402;4.920;2022-10-31T06:48:40;15.40;96.10
17370;DHT22;8802;52.402;4.920;2022-10-31T06:51:07;15.40;95.80
17370;DHT22;8802;52.402;4.920;2022-10-31T06:53:35;15.40;95.80
17370;DHT22;8802;52.402;4.920;2022-10-31T06:56:03;15.40;95.80
17370;DHT22;8802;52.402;4.920;2022-10-31T06:58:30;15.40;95.90
17370;DHT22;8802;52.402;4.920;2022-10-31T07:00:59;15.40;96.00
17370;DHT22;8802;52.402;4.920;2022-10-31T07:03:26;15.40;96.10
17370;DHT22;8802;52.402;4.920;2022-10-31T07:05:55;15.30;96.10
17370;DHT22;8802;52.402;4.920;2022-10-31T07:08:22;15.30;96.00
17370;DHT22;8802;52.402;4.920;2022-10-31T07:10:52;15.40;96.10
17370;DHT22;8802;52.402;4.920;2022-10-31T07:13:21;15.30;96.10
17370;DHT22;8802;52.402;4.920;2022-10-31T07:15:51;15.30;96.30
17370;DHT22;8802;52.402;4.920;2022-10-31T07:18:18;15.40;96.40
17370;DHT22;8802;52.402;4.920;2022-10-31T07:20:46;15.30;96.50
17370;DHT22;8802;52.402;4.920;2022-10-31T07:23:12;15.40;96.60
17370;DHT22;8802;52.402;4.920;2022-10-31T07:25:40;15.40;96.70
17370;DHT22;8802;52.402;4.920;2022-10-31T07:28:07;15.40;96.70
17370;DHT22;8802;52.402;4.920;2022-10-31T07:30:36;15.40;96.80
17370;DHT22;8802;52.402;4.920;2022-10-31T07:33:03;15.40;96.80
17370;DHT22;8802;52.402;4.920;2022-10-31T07:35:31;15.40;97.00
17370;DHT22;8802;52.402;4.920;2022-10-31T07:38:06;15.40;96.90
17370;DHT22;8802;52.402;4.920;2022-10-31T07:40:33;15.40;97.00
17370;DHT22;8802;52.402;4.920;2022-10-31T07:43:00;15.50;97.10
17370;DHT22;8802;52.402;4.920;2022-10-31T07:45:27;15.50;97.10
17370;DHT22;8802;52.402;4.920;2022-10-31T07:47:55;15.50;97.10
17370;DHT22;8802;52.402;4.920;2022-10-31T07:50:24;15.50;97.10
17370;DHT22;8802;52.402;4.920;2022-10-31T07:52:58;15.50;97.20
17370;DHT22;8802;52.402;4.920;2022-10-31T07:55:26;15.50;97.20
17370;DHT22;8802;52.402;4.920;2022-10-31T07:57:56;15.60;97.10
17370;DHT22;8802;52.402;4.920;2022-10-31T08:00:23;15.50;97.50
17370;DHT22;8802;52.402;4.920;2022-10-31T08:02:58;15.60;97.10
17370;DHT22;8802;52.402;4.920;2022-10-31T08:05:25;15.60;97.30
17370;DHT22;8802;52.402;4.920;2022-10-31T08:07:51;15.60;97.30
17370;DHT22;8802;52.402;4.920;2022-10-31T08:10:19;15.60;97.40
17370;DHT22;8802;52.402;4.920;2022-10-31T08:12:45;15.60;97.40
17370;DHT22;8802;52.402;4.920;2022-10-31T08:15:12;15.60;97.40
17370;DHT22;8802;52.402;4.920;2022-10-31T08:17:39;15.70;97.50
17370;DHT22;8802;52.402;4.920;2022-10-31T08:20:08;15.70;97.50
17370;DHT22;8802;52.402;4.920;2022-10-31T08:22:35;15.70;97.50
17370;DHT22;8802;52.402;4.920;2022-10-31T08:25:02;15.70;97.50
17370;DHT22;8802;52.402;4.920;2022-10-31T08:27:29;15.80;97.50
17370;DHT22;8802;52.402;4.920;2022-10-31T08:29:56;15.80;97.50
17370;DHT22;8802;52.402;4.920;2022-10-31T08:32:23;15.80;97.50
17370;DHT22;8802;52.402;4.920;2022-10-31T08:34:50;15.90;97.60
17370;DHT22;8802;52.402;4.920;2022-10-31T08:37:18;15.90;97.60
17370;DHT22;8802;52.402;4.920;2022-10-31T08:39:45;16.00;97.70
17370;DHT22;8802;52.402;4.920;2022-10-31T08:42:12;15.90;97.70
17370;DHT22;8802;52.402;4.920;2022-10-31T08:44:39;16.10;97.70
17370;DHT22;8802;52.402;4.920;2022-10-31T08:47:06;16.00;97.80
17370;DHT22;8802;52.402;4.920;2022-10-31T08:49:33;16.10;97.80
17370;DHT22;8802;52.402;4.920;2022-10-31T08:52:00;16.00;97.80
17370;DHT22;8802;52.402;4.920;2022-10-31T08:54:28;16.20;98.20
17370;DHT22;8802;52.402;4.920;2022-10-31T08:56:55;16.20;97.70
17370;DHT22;8802;52.402;4.920;2022-10-31T08:59:22;16.30;97.80
17370;DHT22;8802;52.402;4.920;2022-10-31T09:01:49;16.40;97.80
17370;DHT22;8802;52.402;4.920;2022-10-31T09:04:16;16.40;97.80
17370;DHT22;8802;52.402;4.920;2022-10-31T09:06:42;16.50;97.70
17370;DHT22;8802;52.402;4.920;2022-10-31T09:09:09;16.60;97.70
17370;DHT22;8802;52.402;4.920;2022-10-31T09:11:37;16.60;97.60
17370;DHT22;8802;52.402;4.920;2022-10-31T09:14:04;16.70;97.30
17370;DHT22;8802;52.402;4.920;2022-10-31T09:16:31;16.80;97.10
17370;DHT22;8802;52.402;4.920;2022-10-31T09:18:58;16.90;97.00
17370;DHT22;8802;52.402;4.920;2022-10-31T09:21:25;16.90;96.70
17370;DHT22;8802;52.402;4.920;2022-10-31T09:23:51;16.90;96.70
17370;DHT22;8802;52.402;4.920;2022-10-31T09:26:19;17.00;96.60
17370;DHT22;8802;52.402;4.920;2022-10-31T09:28:48;17.10;96.80
17370;DHT22;8802;52.402;4.920;2022-10-31T09:31:14;17.10;96.70
17370;DHT22;8802;52.402;4.920;2022-10-31T09:33:41;17.20;96.60
17370;DHT22;8802;52.402;4.920;2022-10-31T09:36:08;17.20;96.50
17370;DHT22;8802;52.402;4.920;2022-10-31T09:38:35;17.20;96.50
17370;DHT22;8802;52.402;4.920;2022-10-31T09:41:07;17.30;96.50
17370;DHT22;8802;52.402;4.920;2022-10-31T09:43:45;17.30;96.40
17370;DHT22;8802;52.402;4.920;2022-10-31T09:46:26;17.40;96.30
17370;DHT22;8802;52.402;4.920;2022-10-31T09:49:07;17.50;96.30
17370;DHT22;8802;52.402;4.920;2022-10-31T09:51:42;17.60;96.20
17370;DHT22;8802;52.402;4.920;2022-10-31T09:54:14;17.60;96.10
17370;DHT22;8802;52.402;4.920;2022-10-31T09:56:42;17.70;96.10
17370;DHT22;8802;52.402;4.920;2022-10-31T09:59:16;17.70;96.10
17370;DHT22;8802;52.402;4.920;2022-10-31T10:01:49;17.80;96.10
17370;DHT22;8802;52.402;4.920;2022-10-31T10:04:32;17.90;96.00
17370;DHT22;8802;52.402;4.920;2022-10-31T10:07:05;17.90;96.10
17370;DHT22;8802;52.402;4.920;2022-10-31T10:09:32;18.00;96.10
17370;DHT22;8802;52.402;4.920;2022-10-31T10:12:08;18.10;96.10
17370;DHT22;8802;52.402;4.920;2022-10-31T10:14:59;18.10;95.80
17370;DHT22;8802;52.402;4.920;2022-10-31T10:17:37;18.20;95.80
17370;DHT22;8802;52.402;4.920;2022-10-31T10:20:21;18.20;95.70
17370;DHT22;8802;52.402;4.920;2022-10-31T10:22:57;18.20;96.00
17370;DHT22;8802;52.402;4.920;2022-10-31T10:25:31;18.20;95.50
17370;DHT22;8802;52.402;4.920;2022-10-31T10:28:06;18.30;95.50
17370;DHT22;8802;52.402;4.920;2022-10-31T10:30:39;18.40;95.50
17370;DHT22;8802;52.402;4.920;2022-10-31T10:33:11;18.40;95.40
17370;DHT22;8802;52.402;4.920;2022-10-31T10:35:42;18.40;95.40
17370;DHT22;8802;52.402;4.920;2022-10-31T10:38:16;18.40;95.40
17370;DHT22;8802;52.402;4.920;2022-10-31T10:40:45;18.50;95.40
17370;DHT22;8802;52.402;4.920;2022-10-31T10:43:21;18.50;95.40
17370;DHT22;8802;52.402;4.920;2022-10-31T10:45:52;18.50;95.40
17370;DHT22;8802;52.402;4.920;2022-10-31T10:48:49;18.60;95.40
17370;DHT22;8802;52.402;4.920;2022-10-31T10:51:23;18.60;95.30
17370;DHT22;8802;52.402;4.920;2022-10-31T10:54:07;18.60;95.30
17370;DHT22;8802;52.402;4.920;2022-10-31T10:56:49;18.70;95.30
17370;DHT22;8802;52.402;4.920;2022-10-31T10:59:20;18.70;95.20
17370;DHT22;8802;52.402;4.920;2022-10-31T11:01:48;18.70;95.10
17370;DHT22;8802;52.402;4.920;2022-10-31T11:04:30;18.80;95.10
17370;DHT22;8802;52.402;4.920;2022-10-31T11:07:03;18.80;95.00
17370;DHT22;8802;52.402;4.920;2022-10-31T11:09:30;18.90;95.00
17370;DHT22;8802;52.402;4.920;2022-10-31T11:11:57;18.90;94.90
17370;DHT22;8802;52.402;4.920;2022-10-31T11:14:25;18.90;94.90
17370;DHT22;8802;52.402;4.920;2022-10-31T11:16:55;18.90;94.90
17370;DHT22;8802;52.402;4.920;2022-10-31T11:19:34;19.00;94.80
17370;DHT22;8802;52.402;4.920;2022-10-31T11:22:06;19.10;94.70
17370;DHT22;8802;52.402;4.920;2022-10-31T11:24:38;19.10;94.00
17370;DHT22;8802;52.402;4.920;2022-10-31T11:27:14;19.10;94.00
17370;DHT22;8802;52.402;4.920;2022-10-31T11:29:41;19.10;94.00
17370;DHT22;8802;52.402;4.920;2022-10-31T11:32:16;19.20;93.80
17370;DHT22;8802;52.402;4.920;2022-10-31T11:34:48;19.20;93.60
17370;DHT22;8802;52.402;4.920;2022-10-31T11:37:19;19.20;93.70
17370;DHT22;8802;52.402;4.920;2022-10-31T11:39:50;19.20;93.70
17370;DHT22;8802;52.402;4.920;2022-10-31T11:42:21;19.20;93.70
17370;DHT22;8802;52.402;4.920;2022-10-31T11:44:49;19.30;93.70
17370;DHT22;8802;52.402;4.920;2022-10-31T11:47:19;19.30;93.60
17370;DHT22;8802;52.402;4.920;2022-10-31T11:49:49;19.30;93.60
17370;DHT22;8802;52.402;4.920;2022-10-31T11:52:19;19.30;94.10
17370;DHT22;8802;52.402;4.920;2022-10-31T11:54:50;19.30;93.60
17370;DHT22;8802;52.402;4.920;2022-10-31T11:57:24;19.30;93.60
17370;DHT22;8802;52.402;4.920;2022-10-31T11:59:52;19.30;93.60
17370;DHT22;8802;52.402;4.920;2022-10-31T12:02:20;19.30;93.60
17370;DHT22;8802;52.402;4.920;2022-10-31T12:04:53;19.40;93.80
17370;DHT22;8802;52.402;4.920;2022-10-31T12:07:23;19.40;93.60
17370;DHT22;8802;52.402;4.920;2022-10-31T12:09:50;19.40;93.60
17370;DHT22;8802;52.402;4.920;2022-10-31T12:12:40;19.50;93.60
17370;DHT22;8802;52.402;4.920;2022-10-31T12:15:30;19.50;93.50
17370;DHT22;8802;52.402;4.920;2022-10-31T12:18:24;19.60;93.50
17370;DHT22;8802;52.402;4.920;2022-10-31T12:21:04;19.60;93.40
17370;DHT22;8802;52.402;4.920;2022-10-31T12:23:44;19.60;93.70
17370;DHT22;8802;52.402;4.920;2022-10-31T12:26:18;19.60;93.30
17370;DHT22;8802;52.402;4.920;2022-10-31T12:28:59;19.60;93.30
17370;DHT22;8802;52.402;4.920;2022-10-31T12:31:39;19.60;93.20
17370;DHT22;8802;52.402;4.920;2022-10-31T12:34:34;19.60;93.30
17370;DHT22;8802;52.402;4.920;2022-10-31T12:37:12;19.60;93.10
17370;DHT22;8802;52.402;4.920;2022-10-31T12:39:44;19.60;93.20
17370;DHT22;8802;52.402;4.920;2022-10-31T12:42:21;19.60;93.40
17370;DHT22;8802;52.402;4.920;2022-10-31T12:45:13;19.60;93.40
17370;DHT22;8802;52.402;4.920;2022-10-31T12:47:55;19.60;93.40
17370;DHT22;8802;52.402;4.920;2022-10-31T12:50:31;19.60;93.50
17370;DHT22;8802;52.402;4.920;2022-10-31T12:53:12;19.70;93.70
17370;DHT22;8802;52.402;4.920;2022-10-31T12:55:55;19.70;93.60
17370;DHT22;8802;52.402;4.920;2022-10-31T12:58:35;19.70;93.60
17370;DHT22;8802;52.402;4.920;2022-10-31T13:01:09;19.70;93.60
17370;DHT22;8802;52.402;4.920;2022-10-31T13:03:44;19.80;93.60
17370;DHT22;8802;52.402;4.920;2022-10-31T13:06:17;19.80;93.60
17370;DHT22;8802;52.402;4.920;2022-10-31T13:08:49;19.80;93.60
17370;DHT22;8802;52.402;4.920;2022-10-31T13:11:19;19.90;93.60
17370;DHT22;8802;52.402;4.920;2022-10-31T13:13:55;19.90;93.40
17370;DHT22;8802;52.402;4.920;2022-10-31T13:16:25;19.90;93.40
17370;DHT22;8802;52.402;4.920;2022-10-31T13:18:57;19.90;93.40
17370;DHT22;8802;52.402;4.920;2022-10-31T13:21:30;20.00;93.40
17370;DHT22;8802;52.402;4.920;2022-10-31T13:24:00;20.00;93.40
17370;DHT22;8802;52.402;4.920;2022-10-31T13:26:36;20.00;93.40
17370;DHT22;8802;52.402;4.920;2022-10-31T13:29:11;20.00;93.40
17370;DHT22;8802;52.402;4.920;2022-10-31T13:31:41;20.00;93.30
17370;DHT22;8802;52.402;4.920;2022-10-31T13:34:17;20.00;93.30
17370;DHT22;8802;52.402;4.920;2022-10-31T13:36:50;20.00;93.30
17370;DHT22;8802;52.402;4.920;2022-10-31T13:39:27;20.00;93.20
17370;DHT22;8802;52.402;4.920;2022-10-31T13:42:01;20.00;93.30
17370;DHT22;8802;52.402;4.920;2022-10-31T13:44:30;20.00;93.20
17370;DHT22;8802;52.402;4.920;2022-10-31T13:47:03;20.00;93.20
17370;DHT22;8802;52.402;4.920;2022-10-31T13:49:38;19.90;93.20
17370;DHT22;8802;52.402;4.920;2022-10-31T13:52:16;19.90;93.20
17370;DHT22;8802;52.402;4.920;2022-10-31T13:54:51;19.90;93.10
17370;DHT22;8802;52.402;4.920;2022-10-31T13:57:29;19.90;93.10
17370;DHT22;8802;52.402;4.920;2022-10-31T13:59:58;19.80;93.20
17370;DHT22;8802;52.402;4.920;2022-10-31T14:02:27;19.80;93.20
17370;DHT22;8802;52.402;4.920;2022-10-31T14:04:57;19.80;93.30
17370;DHT22;8802;52.402;4.920;2022-10-31T14:07:25;19.80;93.30
17370;DHT22;8802;52.402;4.920;2022-10-31T14:09:57;19.70;93.30
17370;DHT22;8802;52.402;4.920;2022-10-31T14:12:29;19.70;93.40
17370;DHT22;8802;52.402;4.920;2022-10-31T14:15:00;19.70;93.80
17370;DHT22;8802;52.402;4.920;2022-10-31T14:17:33;19.70;93.50
17370;DHT22;8802;52.402;4.920;2022-10-31T14:20:32;19.60;93.40
17370;DHT22;8802;52.402;4.920;2022-10-31T14:23:11;19.60;93.50
17370;DHT22;8802;52.402;4.920;2022-10-31T14:25:39;19.60;93.90
17370;DHT22;8802;52.402;4.920;2022-10-31T14:28:20;19.60;93.60
17370;DHT22;8802;52.402;4.920;2022-10-31T14:30:54;19.60;93.50
17370;DHT22;8802;52.402;4.920;2022-10-31T14:33:22;19.50;93.60
17370;DHT22;8802;52.402;4.920;2022-10-31T14:36:00;19.50;93.60
17370;DHT22;8802;52.402;4.920;2022-10-31T14:38:39;19.50;93.60
17370;DHT22;8802;52.402;4.920;2022-10-31T14:41:36;19.50;93.60
17370;DHT22;8802;52.402;4.920;2022-10-31T14:47:17;19.50;93.80
17370;DHT22;8802;52.402;4.920;2022-10-31T14:50:09;19.50;93.80
17370;DHT22;8802;52.402;4.920;2022-10-31T14:52:40;19.40;93.90
17370;DHT22;8802;52.402;4.920;2022-10-31T14:55:11;19.40;93.90
17370;DHT22;8802;52.402;4.920;2022-10-31T14:57:46;19.40;93.90
17370;DHT22;8802;52.402;4.920;2022-10-31T15:00:18;19.40;94.00
17370;DHT22;8802;52.402;4.920;2022-10-31T15:02:52;19.40;94.00
17370;DHT22;8802;52.402;4.920;2022-10-31T15:05:20;19.40;94.10
17370;DHT22;8802;52.402;4.920;2022-10-31T15:07:50;19.30;94.10
17370;DHT22;8802;52.402;4.920;2022-10-31T15:10:21;19.30;94.10
17370;DHT22;8802;52.402;4.920;2022-10-31T15:12:50;19.30;94.20
17370;DHT22;8802;52.402;4.920;2022-10-31T15:15:19;19.30;94.20
17370;DHT22;8802;52.402;4.920;2022-10-31T15:17:49;19.30;94.20
17370;DHT22;8802;52.402;4.920;2022-10-31T15:20:19;19.20;94.30
17370;DHT22;8802;52.402;4.920;2022-10-31T15:22:47;19.20;94.30
17370;DHT22;8802;52.402;4.920;2022-10-31T15:25:17;19.20;94.40
17370;DHT22;8802;52.402;4.920;2022-10-31T15:27:46;19.20;94.40
17370;DHT22;8802;52.402;4.920;2022-10-31T15:30:20;19.10;94.40
17370;DHT22;8802;52.402;4.920;2022-10-31T15:32:48;19.10;94.50
17370;DHT22;8802;52.402;4.920;2022-10-31T15:35:22;19.10;94.50
17370;DHT22;8802;52.402;4.920;2022-10-31T15:37:51;19.10;94.50
17370;DHT22;8802;52.402;4.920;2022-10-31T15:40:19;19.00;94.40
17370;DHT22;8802;52.402;4.920;2022-10-31T15:42:51;19.00;94.50
17370;DHT22;8802;52.402;4.920;2022-10-31T15:45:22;19.00;94.50
17370;DHT22;8802;52.402;4.920;2022-10-31T15:47:54;18.90;94.50
17370;DHT22;8802;52.402;4.920;2022-10-31T15:50:27;18.90;94.50
17370;DHT22;8802;52.402;4.920;2022-10-31T15:52:54;18.90;94.50
17370;DHT22;8802;52.402;4.920;2022-10-31T15:55:24;18.90;94.60
17370;DHT22;8802;52.402;4.920;2022-10-31T15:57:55;18.90;94.60
17370;DHT22;8802;52.402;4.920;2022-10-31T16:00:26;18.80;94.60
17370;DHT22;8802;52.402;4.920;2022-10-31T16:05:47;18.70;94.70
17370;DHT22;8802;52.402;4.920;2022-10-31T16:08:24;18.70;94.80
17370;DHT22;8802;52.402;4.920;2022-10-31T16:10:52;18.70;94.80
17370;DHT22;8802;52.402;4.920;2022-10-31T16:13:22;18.70;94.90
17370;DHT22;8802;52.402;4.920;2022-10-31T16:15:54;18.70;94.90
17370;DHT22;8802;52.402;4.920;2022-10-31T16:18:22;18.60;95.00